Accueil
METAR-TAF:

METAR-TAF

Aéroports :

Aéroport international de Berne

Berne, Suisse

latitude: 46-55N, longitude: 007-30E, altitude: 505 m

Observation

Le bulletin a été fait il y a 35 minutes, à 01:50 UTC
Vent 1 kt de direction variable
Température 17°C
Humidité 100%
Pression 1022 hPa
Visibilité: 8000 m
Nuages fragmentés à une hauteur de 4600 ft

METAR: LSZB 190150Z AUTO VRB01KT 8000 BKN046 17/17 Q1022

Heure: 04:25 (02:25 UTC)

Prévision

Le bulletin a été fait il y a 12 heures et 0 minutes, à 14:25 UTC
Prévision valable du 18 à 15 UTC au 18 à 24 UTC
Vent 5 kt de nord-ouest
Visibilité 10 km ou plus
Nuages épars à une hauteur de 3000 ft

TAF: LSZB 181425Z 1815/1824 32005KT 9999 SCT030

Observations et prévisions météorologiques de plus de 4000 aéroports (messages METAR et TAF).

Les stations disponibles sont représentées par des disques jaunes et rouges sur la carte.

Passer la souris dessus pour voir le nom de la station.

Cliquer dessus pour voir les observations et prévisions météorologiques.

Pour changer de carte: cliquez sur les boutons verts avec une croix noire pour zoomer, sur le bouton vert avec un tiret pour effectuer un zoom arrière, ou sur les flèches vertes pour les cartes adjacentes.


METAR-TAF: